Eko 4 — SVAR8 — position and weather

sailwx.info

Track history (hours):
 
Tides and Currents Weather Stations Pressure Air Temp Water Temp Dewpoint Dewpoint Depression Visibility Wind Speed Wind Dir Waves Ship Positions

Eko 4

Last reported at 2017-Feb-23 18:33 UTC. Time now 2017-Feb-24 21:39 UTC.
Position N 37°32' E 023°55'.

Length 88 m; draft 5.8 m.

Type: Ship (hazmat cat A). MMSI: 240912000.

Date/timePositionNaut miles runAvg speedWind from/ knotsBaromVisibWave heightAir tempDewpointWater temp
2017-Feb-23 18:33N 37°32' E 023°55'10 9.8
2017-Feb-23 17:33N 37°38' E 023°46'10 9.7
2017-Feb-23 16:33N 37°46' E 023°39'9 9.5
2017-Feb-23 15:34N 37°55' E 023°37'7 6.6
2017-Feb-23 14:31N 38°01' E 023°32'0 0.0
2017-Feb-23 13:31N 38°01' E 023°32'0 0.0
2017-Feb-23 12:33N 38°01' E 023°32'0 0.0
2017-Feb-23 11:33N 38°01' E 023°32'3 0.2
2017-Feb-22 23:09N 38°02' E 023°35'3 4.8
2017-Feb-22 22:33N 38°01' E 023°32'0 0.0
2017-Feb-22 21:31N 38°01' E 023°32'0 0.0
2017-Feb-22 20:31N 38°01' E 023°32'0 0.0
2017-Feb-22 19:31N 38°01' E 023°32'0 0.1
2017-Feb-22 18:31N 38°01' E 023°32'0 0.0
2017-Feb-22 17:31N 38°01' E 023°32'0 0.0
2017-Feb-22 16:31N 38°01' E 023°32'0 0.0
2017-Feb-22 15:31N 38°01' E 023°32'5 4.9
2017-Feb-22 14:33N 37°57' E 023°35'1 1.3
2017-Feb-22 13:33N 37°56' E 023°35'1 0.9
2017-Feb-22 12:33N 37°55' E 023°35'0 0.0
2017-Feb-22 11:34N 37°55' E 023°35'1 1.1
2017-Feb-22 10:33N 37°55' E 023°36'1010.2
2017-Feb-22 09:33N 37°46' E 023°42'  
2017-Feb-19 15:20N 37°36' E 023°49'6 8.4
2017-Feb-19 14:33N 37°40' E 023°43'9 9.0
2017-Feb-19 13:33N 37°48' E 023°37'8 8.1
2017-Feb-19 12:33N 37°56' E 023°36'5 5.5
2017-Feb-19 11:33N 38°01' E 023°32'3 0.2
2017-Feb-18 21:33N 38°02' E 023°35'2 2.4
2017-Feb-18 20:34N 38°01' E 023°32'0 0.0
2017-Feb-18 19:34N 38°01' E 023°32'0 0.1
2017-Feb-18 18:34N 38°01' E 023°32'0 0.1
2017-Feb-18 17:34N 38°01' E 023°32'0 0.0
2017-Feb-18 16:34N 38°01' E 023°32'0 0.0
2017-Feb-18 15:34N 38°01' E 023°32'0 0.0
2017-Feb-18 14:34N 38°01' E 023°32'0 0.0
2017-Feb-18 13:34N 38°01' E 023°32'3 3.1
2017-Feb-18 12:33N 37°58' E 023°33'1 1.1
2017-Feb-18 11:31N 37°58' E 023°34'0 0.0
2017-Feb-18 10:33N 37°58' E 023°34'0 0.0
2017-Feb-18 09:33N 37°58' E 023°34'0 0.0
2017-Feb-18 08:33N 37°58' E 023°34'0 0.0
2017-Feb-18 07:33N 37°58' E 023°34'0 0.0
2017-Feb-18 06:33N 37°58' E 023°34'0 0.0
2017-Feb-18 05:33N 37°58' E 023°34'0 0.0
2017-Feb-18 04:33N 37°58' E 023°34'0 0.0
2017-Feb-18 03:33N 37°58' E 023°34'0 0.0
2017-Feb-18 02:33N 37°58' E 023°34'0 0.0
2017-Feb-18 01:33N 37°58' E 023°34'0 0.0
2017-Feb-18 00:33N 37°58' E 023°34'0 0.0
2017-Feb-17 23:33N 37°58' E 023°34'0 0.0
2017-Feb-17 22:33N 37°58' E 023°34'0 0.0
2017-Feb-17 21:33N 37°58' E 023°34'0 0.0
2017-Feb-17 20:33N 37°58' E 023°34'0 0.0
2017-Feb-17 19:33N 37°58' E 023°34'0 0.0
2017-Feb-17 18:33N 37°58' E 023°34'0 0.0
2017-Feb-17 17:33N 37°58' E 023°34'0 0.0
2017-Feb-17 16:33N 37°58' E 023°34'0 0.0
2017-Feb-17 15:33N 37°58' E 023°34'0 0.0
2017-Feb-17 14:33N 37°58' E 023°34'0 0.0
2017-Feb-17 13:33N 37°58' E 023°34'0 0.0
2017-Feb-17 12:31N 37°58' E 023°34'0 0.0
2017-Feb-17 11:31N 37°58' E 023°34'0 0.0
2017-Feb-17 10:31N 37°58' E 023°34'0 0.0
2017-Feb-17 09:31N 37°58' E 023°34'0 0.0
2017-Feb-17 08:31N 37°58' E 023°34'0 0.0
2017-Feb-17 07:31N 37°58' E 023°34'0 0.0
2017-Feb-17 06:31N 37°58' E 023°34'0 0.0
2017-Feb-17 05:31N 37°58' E 023°34'0 0.0
2017-Feb-17 04:31N 37°58' E 023°34'0 0.0
2017-Feb-17 03:31N 37°58' E 023°34'0 0.0
2017-Feb-17 02:31N 37°58' E 023°34'0 0.0
2017-Feb-17 01:31N 37°58' E 023°34'0 0.0
2017-Feb-17 00:31N 37°58' E 023°34'0 0.0
2017-Feb-16 23:31N 37°58' E 023°34'0 0.0
2017-Feb-16 22:31N 37°58' E 023°34'0 0.0
2017-Feb-16 21:31N 37°58' E 023°34'0 0.0
2017-Feb-16 20:28N 37°58' E 023°34'0 0.0
2017-Feb-16 19:31N 37°58' E 023°34'0 0.0
2017-Feb-16 18:31N 37°58' E 023°34'0 0.0
2017-Feb-16 17:31N 37°58' E 023°34'0 0.0
2017-Feb-16 16:31N 37°58' E 023°34'0 0.0
2017-Feb-16 15:31N 37°58' E 023°34'0 0.0
2017-Feb-16 14:31N 37°58' E 023°34'0 0.0
2017-Feb-16 13:31N 37°58' E 023°34'0 0.0
2017-Feb-16 12:31N 37°58' E 023°34'0 0.0
2017-Feb-16 11:28N 37°58' E 023°34'0 0.0
2017-Feb-16 10:31N 37°58' E 023°34'0 0.0
2017-Feb-16 09:31N 37°58' E 023°34'0 0.0
2017-Feb-16 08:31N 37°58' E 023°34'0 0.0
2017-Feb-16 07:31N 37°58' E 023°34'0 0.0
2017-Feb-16 06:31N 37°58' E 023°34'0 0.0
2017-Feb-16 05:31N 37°58' E 023°34'0 0.0
2017-Feb-16 04:31N 37°58' E 023°34'0 0.0
2017-Feb-16 03:31N 37°58' E 023°34'0 0.0
2017-Feb-16 02:31N 37°58' E 023°34'0 0.0
2017-Feb-16 01:31N 37°58' E 023°34'0 0.0
2017-Feb-16 00:31N 37°58' E 023°34'0 0.0
2017-Feb-15 23:31N 37°58' E 023°34'0 0.0
2017-Feb-15 22:31N 37°58' E 023°34'0 0.0
2017-Feb-15 21:31N 37°58' E 023°34'0 0.0
2017-Feb-15 20:31N 37°58' E 023°34'0 0.0
2017-Feb-15 19:31N 37°58' E 023°34'0 0.0
2017-Feb-15 18:28N 37°58' E 023°34'0 0.0
2017-Feb-15 17:31N 37°58' E 023°34'0 0.0
2017-Feb-15 16:31N 37°58' E 023°34'0 0.0
2017-Feb-15 15:31N 37°58' E 023°34'0 0.0
2017-Feb-15 14:31N 37°58' E 023°34'0 0.0
2017-Feb-15 13:31N 37°58' E 023°34'0 0.0
2017-Feb-15 12:31N 37°58' E 023°34'0 0.0
2017-Feb-15 11:32N 37°58' E 023°34'0 0.0
2017-Feb-15 10:32N 37°58' E 023°34'0 0.0
2017-Feb-15 09:31N 37°58' E 023°34'0 0.0
2017-Feb-15 08:32N 37°58' E 023°34'0 0.0
2017-Feb-15 07:32N 37°58' E 023°34'0 0.0
2017-Feb-15 06:32N 37°58' E 023°34'0 0.0
2017-Feb-15 05:32N 37°58' E 023°34'0 0.0
2017-Feb-15 04:32N 37°58' E 023°34'0 0.0
2017-Feb-15 03:32N 37°58' E 023°34'0 0.0
2017-Feb-15 02:28N 37°58' E 023°34'0 0.0
2017-Feb-15 01:29N 37°58' E 023°34'0 0.0
2017-Feb-15 00:32N 37°58' E 023°34'0 0.0
2017-Feb-14 23:32N 37°58' E 023°34'0 0.0
2017-Feb-14 22:31N 37°58' E 023°34'0 0.0
2017-Feb-14 21:29N 37°58' E 023°34'0 0.0
2017-Feb-14 20:32N 37°58' E 023°34'0 0.0
2017-Feb-14 19:32N 37°58' E 023°34'0 0.0
2017-Feb-14 18:32N 37°58' E 023°34'0 0.0
2017-Feb-14 17:31N 37°58' E 023°34'0 0.0
2017-Feb-14 16:32N 37°58' E 023°34'0 0.0
2017-Feb-14 15:32N 37°58' E 023°34'0 0.0
2017-Feb-14 14:31N 37°58' E 023°34'0 0.0
2017-Feb-14 13:31N 37°58' E 023°34'0 0.0
2017-Feb-14 12:32N 37°58' E 023°34'0 0.0
2017-Feb-14 11:32N 37°58' E 023°34'0 0.0
2017-Feb-14 10:32N 37°58' E 023°34'0 0.0
2017-Feb-14 09:32N 37°58' E 023°34'0 0.0
2017-Feb-14 08:31N 37°58' E 023°34'0 0.0
2017-Feb-14 07:32N 37°58' E 023°34'0 0.0
2017-Feb-14 06:32N 37°58' E 023°34'0 0.0
2017-Feb-14 05:32N 37°58' E 023°34'0 0.0
2017-Feb-14 03:22N 37°58' E 023°34'0 0.0
2017-Feb-14 02:32N 37°58' E 023°34'0 0.0
2017-Feb-14 01:28N 37°58' E 023°34'0 0.0
2017-Feb-14 00:29N 37°58' E 023°34'0 0.0
2017-Feb-13 23:32N 37°58' E 023°34'0 0.0
2017-Feb-13 22:29N 37°58' E 023°34'0 0.0
2017-Feb-13 21:29N 37°58' E 023°34'0 0.0
2017-Feb-13 20:32N 37°58' E 023°34'0 0.0
2017-Feb-13 19:32N 37°58' E 023°34'  
Track history (hours):
 
Tides and Currents Weather Stations Pressure Air Temp Water Temp Dewpoint Dewpoint Depression Visibility Wind Speed Wind Dir Waves Ship Positions

Eko 4

Last reported at 2017-Feb-23 18:33 UTC. Time now 2017-Feb-24 21:39 UTC.
Position N 37°32' E 023°55'.

Length 88 m; draft 5.8 m.

Type: Ship (hazmat cat A). MMSI: 240912000.

Date/timePositionNaut miles runAvg speedWind from/ knotsBaromVisibWave heightAir tempDewpointWater temp
2017-Feb-23 18:33N 37°32' E 023°55'10 9.8
2017-Feb-23 17:33N 37°38' E 023°46'10 9.7
2017-Feb-23 16:33N 37°46' E 023°39'9 9.5
2017-Feb-23 15:34N 37°55' E 023°37'7 6.6
2017-Feb-23 14:31N 38°01' E 023°32'0 0.0
2017-Feb-23 13:31N 38°01' E 023°32'0 0.0
2017-Feb-23 12:33N 38°01' E 023°32'0 0.0
2017-Feb-23 11:33N 38°01' E 023°32'3 0.2
2017-Feb-22 23:09N 38°02' E 023°35'3 4.8
2017-Feb-22 22:33N 38°01' E 023°32'0 0.0
2017-Feb-22 21:31N 38°01' E 023°32'0 0.0
2017-Feb-22 20:31N 38°01' E 023°32'0 0.0
2017-Feb-22 19:31N 38°01' E 023°32'0 0.1
2017-Feb-22 18:31N 38°01' E 023°32'0 0.0
2017-Feb-22 17:31N 38°01' E 023°32'0 0.0
2017-Feb-22 16:31N 38°01' E 023°32'0 0.0
2017-Feb-22 15:31N 38°01' E 023°32'5 4.9
2017-Feb-22 14:33N 37°57' E 023°35'1 1.3
2017-Feb-22 13:33N 37°56' E 023°35'1 0.9
2017-Feb-22 12:33N 37°55' E 023°35'0 0.0
2017-Feb-22 11:34N 37°55' E 023°35'1 1.1
2017-Feb-22 10:33N 37°55' E 023°36'1010.2
2017-Feb-22 09:33N 37°46' E 023°42'  
2017-Feb-19 15:20N 37°36' E 023°49'6 8.4
2017-Feb-19 14:33N 37°40' E 023°43'9 9.0
2017-Feb-19 13:33N 37°48' E 023°37'8 8.1
2017-Feb-19 12:33N 37°56' E 023°36'5 5.5
2017-Feb-19 11:33N 38°01' E 023°32'3 0.2
2017-Feb-18 21:33N 38°02' E 023°35'2 2.4
2017-Feb-18 20:34N 38°01' E 023°32'0 0.0
2017-Feb-18 19:34N 38°01' E 023°32'0 0.1
2017-Feb-18 18:34N 38°01' E 023°32'0 0.1
2017-Feb-18 17:34N 38°01' E 023°32'0 0.0
2017-Feb-18 16:34N 38°01' E 023°32'0 0.0
2017-Feb-18 15:34N 38°01' E 023°32'0 0.0
2017-Feb-18 14:34N 38°01' E 023°32'0 0.0
2017-Feb-18 13:34N 38°01' E 023°32'3 3.1
2017-Feb-18 12:33N 37°58' E 023°33'1 1.1
2017-Feb-18 11:31N 37°58' E 023°34'0 0.0
2017-Feb-18 10:33N 37°58' E 023°34'0 0.0
2017-Feb-18 09:33N 37°58' E 023°34'0 0.0
2017-Feb-18 08:33N 37°58' E 023°34'0 0.0
2017-Feb-18 07:33N 37°58' E 023°34'0 0.0
2017-Feb-18 06:33N 37°58' E 023°34'0 0.0
2017-Feb-18 05:33N 37°58' E 023°34'0 0.0
2017-Feb-18 04:33N 37°58' E 023°34'0 0.0
2017-Feb-18 03:33N 37°58' E 023°34'0 0.0
2017-Feb-18 02:33N 37°58' E 023°34'0 0.0
2017-Feb-18 01:33N 37°58' E 023°34'0 0.0
2017-Feb-18 00:33N 37°58' E 023°34'0 0.0
2017-Feb-17 23:33N 37°58' E 023°34'0 0.0
2017-Feb-17 22:33N 37°58' E 023°34'0 0.0
2017-Feb-17 21:33N 37°58' E 023°34'0 0.0
2017-Feb-17 20:33N 37°58' E 023°34'0 0.0
2017-Feb-17 19:33N 37°58' E 023°34'0 0.0
2017-Feb-17 18:33N 37°58' E 023°34'0 0.0
2017-Feb-17 17:33N 37°58' E 023°34'0 0.0
2017-Feb-17 16:33N 37°58' E 023°34'0 0.0
2017-Feb-17 15:33N 37°58' E 023°34'0 0.0
2017-Feb-17 14:33N 37°58' E 023°34'0 0.0
2017-Feb-17 13:33N 37°58' E 023°34'0 0.0
2017-Feb-17 12:31N 37°58' E 023°34'0 0.0
2017-Feb-17 11:31N 37°58' E 023°34'0 0.0
2017-Feb-17 10:31N 37°58' E 023°34'0 0.0
2017-Feb-17 09:31N 37°58' E 023°34'0 0.0
2017-Feb-17 08:31N 37°58' E 023°34'0 0.0
2017-Feb-17 07:31N 37°58' E 023°34'0 0.0
2017-Feb-17 06:31N 37°58' E 023°34'0 0.0
2017-Feb-17 05:31N 37°58' E 023°34'0 0.0
2017-Feb-17 04:31N 37°58' E 023°34'0 0.0
2017-Feb-17 03:31N 37°58' E 023°34'0 0.0
2017-Feb-17 02:31N 37°58' E 023°34'0 0.0
2017-Feb-17 01:31N 37°58' E 023°34'0 0.0
2017-Feb-17 00:31N 37°58' E 023°34'0 0.0
2017-Feb-16 23:31N 37°58' E 023°34'0 0.0
2017-Feb-16 22:31N 37°58' E 023°34'0 0.0
2017-Feb-16 21:31N 37°58' E 023°34'0 0.0
2017-Feb-16 20:28N 37°58' E 023°34'0 0.0
2017-Feb-16 19:31N 37°58' E 023°34'0 0.0
2017-Feb-16 18:31N 37°58' E 023°34'0 0.0
2017-Feb-16 17:31N 37°58' E 023°34'0 0.0
2017-Feb-16 16:31N 37°58' E 023°34'0 0.0
2017-Feb-16 15:31N 37°58' E 023°34'0 0.0
2017-Feb-16 14:31N 37°58' E 023°34'0 0.0
2017-Feb-16 13:31N 37°58' E 023°34'0 0.0
2017-Feb-16 12:31N 37°58' E 023°34'0 0.0
2017-Feb-16 11:28N 37°58' E 023°34'0 0.0
2017-Feb-16 10:31N 37°58' E 023°34'0 0.0
2017-Feb-16 09:31N 37°58' E 023°34'0 0.0
2017-Feb-16 08:31N 37°58' E 023°34'0 0.0
2017-Feb-16 07:31N 37°58' E 023°34'0 0.0
2017-Feb-16 06:31N 37°58' E 023°34'0 0.0
2017-Feb-16 05:31N 37°58' E 023°34'0 0.0
2017-Feb-16 04:31N 37°58' E 023°34'0 0.0
2017-Feb-16 03:31N 37°58' E 023°34'0 0.0
2017-Feb-16 02:31N 37°58' E 023°34'0 0.0
2017-Feb-16 01:31N 37°58' E 023°34'0 0.0
2017-Feb-16 00:31N 37°58' E 023°34'0 0.0
2017-Feb-15 23:31N 37°58' E 023°34'0 0.0
2017-Feb-15 22:31N 37°58' E 023°34'0 0.0
2017-Feb-15 21:31N 37°58' E 023°34'0 0.0
2017-Feb-15 20:31N 37°58' E 023°34'0 0.0
2017-Feb-15 19:31N 37°58' E 023°34'0 0.0
2017-Feb-15 18:28N 37°58' E 023°34'0 0.0
2017-Feb-15 17:31N 37°58' E 023°34'0 0.0
2017-Feb-15 16:31N 37°58' E 023°34'0 0.0
2017-Feb-15 15:31N 37°58' E 023°34'0 0.0
2017-Feb-15 14:31N 37°58' E 023°34'0 0.0
2017-Feb-15 13:31N 37°58' E 023°34'0 0.0
2017-Feb-15 12:31N 37°58' E 023°34'0 0.0
2017-Feb-15 11:32N 37°58' E 023°34'0 0.0
2017-Feb-15 10:32N 37°58' E 023°34'0 0.0
2017-Feb-15 09:31N 37°58' E 023°34'0 0.0
2017-Feb-15 08:32N 37°58' E 023°34'0 0.0
2017-Feb-15 07:32N 37°58' E 023°34'0 0.0
2017-Feb-15 06:32N 37°58' E 023°34'0 0.0
2017-Feb-15 05:32N 37°58' E 023°34'0 0.0
2017-Feb-15 04:32N 37°58' E 023°34'0 0.0
2017-Feb-15 03:32N 37°58' E 023°34'0 0.0
2017-Feb-15 02:28N 37°58' E 023°34'0 0.0
2017-Feb-15 01:29N 37°58' E 023°34'0 0.0
2017-Feb-15 00:32N 37°58' E 023°34'0 0.0
2017-Feb-14 23:32N 37°58' E 023°34'0 0.0
2017-Feb-14 22:31N 37°58' E 023°34'0 0.0
2017-Feb-14 21:29N 37°58' E 023°34'0 0.0
2017-Feb-14 20:32N 37°58' E 023°34'0 0.0
2017-Feb-14 19:32N 37°58' E 023°34'0 0.0
2017-Feb-14 18:32N 37°58' E 023°34'0 0.0
2017-Feb-14 17:31N 37°58' E 023°34'0 0.0
2017-Feb-14 16:32N 37°58' E 023°34'0 0.0
2017-Feb-14 15:32N 37°58' E 023°34'0 0.0
2017-Feb-14 14:31N 37°58' E 023°34'0 0.0
2017-Feb-14 13:31N 37°58' E 023°34'0 0.0
2017-Feb-14 12:32N 37°58' E 023°34'0 0.0
2017-Feb-14 11:32N 37°58' E 023°34'0 0.0
2017-Feb-14 10:32N 37°58' E 023°34'0 0.0
2017-Feb-14 09:32N 37°58' E 023°34'0 0.0
2017-Feb-14 08:31N 37°58' E 023°34'0 0.0
2017-Feb-14 07:32N 37°58' E 023°34'0 0.0
2017-Feb-14 06:32N 37°58' E 023°34'0 0.0
2017-Feb-14 05:32N 37°58' E 023°34'0 0.0
2017-Feb-14 03:22N 37°58' E 023°34'0 0.0
2017-Feb-14 02:32N 37°58' E 023°34'0 0.0
2017-Feb-14 01:28N 37°58' E 023°34'0 0.0
2017-Feb-14 00:29N 37°58' E 023°34'0 0.0
2017-Feb-13 23:32N 37°58' E 023°34'0 0.0
2017-Feb-13 22:29N 37°58' E 023°34'0 0.0
2017-Feb-13 21:29N 37°58' E 023°34'0 0.0
2017-Feb-13 20:32N 37°58' E 023°34'0 0.0
2017-Feb-13 19:32N 37°58' E 023°34'  

Dump ship's entire track history